Afyon, Turkey

5:31 PM EET on November 24, 2014 (GMT +0200)
Suleyman Demirel | Change Station
CLOSE
Current Station
Airport
Location: Suleyman Demirel,
Elevation: 2835 ft
Nearby Weather Stations

Elev 2835 ft 37.86 °N, 30.37 °E | Updated 11 minutes ago

Mostly Cloudy
Mostly Cloudy
41 °F
Feels Like 33 °F
N
15
Wind Variable Wind from NW

Today
High -- | Low -- °F
--% Chance of Precip.
Yesterday
High -- | Low -- °F
Precip. -- in
6:49 AM 4:39 PM
Waxing Crescent, 6% visible
Pressure 30.01 in
Visibility 6.2 miles
Clouds Few 3500 ft
Mostly Cloudy 20000 ft
Windchill 33 °F
Dew Point 28 °F
Humidity 61%
Rainfall 0.00 in
Snow Depth Not available.
UV 0 out of 12
Pollen Not available.
Air Quality Not available.
Flu Activity Not available.
METAR LTFC 241520Z 31013KT 9999 FEW035 BKN200 05/M02 Q1016

More Conditions Fewer Conditions

Pressure 30.01 in
Visibility 6.2 miles
Clouds Few 3500 ft
Mostly Cloudy 20000 ft
Windchill 33 °F
Dew Point 28 °F
Humidity 61%
Rainfall 0.00 in
Snow Depth Not available.
UV 0 out of 12
Pollen Not available.
Air Quality Not available.
Flu Activity Not available.
METAR LTFC 241520Z 31013KT 9999 FEW035 BKN200 05/M02 Q1016

More Conditions Fewer Conditions

10-Day Weather Forecast

Almanac

Astronomy

Nov. 24, 2014 Rise Set
Actual Time
Civil Twilight
Nautical Twilight
Astronomical Twilight
Moon
Length of Visible Light
Length of Day
Tomorrow will be .
, % of the Moon is Illuminated

Today's Extremes

Country Highs Country Lows

Community

WunderPhotos

Upload Photos

1,773,361 photos uploaded!

WunderBlogs® & News

Nearby

Air Quality

  Air Quality AQ Index Pollutant
Not available.

Snow Depth

Station Depth Elevation

Earthquake Activity

City Distance Mag. Time & Date
Minimum magnitude displayed is 2.5.

Coastal Water Temperatures

Place Temperature

Nearby Weather Stations